Taurus — 2CPB4 — position and weather

sailwx.info

Track history (hours):
 
Tides and Currents Weather Stations Pressure Air Temp Water Temp Dewpoint Dewpoint Depression Visibility Wind Speed Wind Dir Waves Ship Positions

Taurus

Last reported at 2018-May-10 02:54 UTC. Time now 2018-May-26 11:59 UTC.
Position N 23°21' E 117°55'.
Warning: this ship's position is 16 days out of date.

Length 292 m; draft 8.5 m.

Type: Ship. MMSI: 235074621.

Date/timePositionNaut miles runAvg speedWind from/ knotsBaromVisibWave heightAir tempDewpointWater temp
2018-May-10 02:54N 23°21' E 117°55'511.3
2018-May-10 02:26N 23°24' E 117°59'711.1
2018-May-10 01:50N 23°29' E 118°04'2211.2
2018-May-09 23:50N 23°44' E 118°22'412.0
2018-May-09 23:29N 23°47' E 118°25'1311.8
2018-May-09 22:25N 23°56' E 118°35'511.7
2018-May-09 21:58N 23°59' E 118°40'2111.5
2018-May-09 20:10N 24°13' E 118°56'211.0
2018-May-09 19:59N 24°15' E 118°58'  
2018-May-05 20:07N 38°02' E 122°14'110.4
2018-May-05 20:00N 38°02' E 122°13'8 9.9
2018-May-05 19:09N 38°02' E 122°02'310.9
2018-May-05 18:54N 38°03' E 121°59'1610.5
2018-May-05 17:25N 38°10' E 121°41'510.4
2018-May-05 16:53N 38°12' E 121°35'5410.9
2018-May-05 11:57N 38°35' E 120°32'  
2018-Apr-30 16:00N 38°25' E 121°25'510.1
2018-Apr-30 15:30N 38°23' E 121°31'510.4
2018-Apr-30 15:00N 38°21' E 121°37'510.7
2018-Apr-30 14:30N 38°19' E 121°43'510.4
2018-Apr-30 14:00N 38°17' E 121°49'510.1
2018-Apr-30 13:30N 38°15' E 121°55'510.2
2018-Apr-30 13:00N 38°13' E 122°01'510.2
2018-Apr-30 12:30N 38°12' E 122°08'510.0
2018-Apr-30 12:00N 38°11' E 122°14'510.1
2018-Apr-30 11:31N 38°10' E 122°20'510.0
2018-Apr-30 11:00N 38°09' E 122°26'510.2
2018-Apr-30 10:30N 38°07' E 122°32'510.3
2018-Apr-30 10:00N 38°05' E 122°38'510.8
2018-Apr-30 09:30N 38°03' E 122°45'510.4
2018-Apr-30 09:00N 38°00' E 122°51'510.8
2018-Apr-30 08:30N 37°58' E 122°57'510.5
2018-Apr-30 08:00N 37°57' E 123°03'510.3
2018-Apr-30 07:30N 37°55' E 123°09'510.3
2018-Apr-30 07:00N 37°54' E 123°16'510.4
2018-Apr-30 06:30N 37°52' E 123°22'510.3
2018-Apr-30 06:00N 37°51' E 123°28'5 9.5
2018-Apr-30 05:30N 37°49' E 123°34'5 9.5
2018-Apr-30 04:59N 37°44' E 123°35'  
Track history (hours):
 
Tides and Currents Weather Stations Pressure Air Temp Water Temp Dewpoint Dewpoint Depression Visibility Wind Speed Wind Dir Waves Ship Positions

Taurus

Last reported at 2018-May-10 02:54 UTC. Time now 2018-May-26 11:59 UTC.
Position N 23°21' E 117°55'.
Warning: this ship's position is 16 days out of date.

Length 292 m; draft 8.5 m.

Type: Ship. MMSI: 235074621.

Date/timePositionNaut miles runAvg speedWind from/ knotsBaromVisibWave heightAir tempDewpointWater temp
2018-May-10 02:54N 23°21' E 117°55'511.3
2018-May-10 02:26N 23°24' E 117°59'711.1
2018-May-10 01:50N 23°29' E 118°04'2211.2
2018-May-09 23:50N 23°44' E 118°22'412.0
2018-May-09 23:29N 23°47' E 118°25'1311.8
2018-May-09 22:25N 23°56' E 118°35'511.7
2018-May-09 21:58N 23°59' E 118°40'2111.5
2018-May-09 20:10N 24°13' E 118°56'211.0
2018-May-09 19:59N 24°15' E 118°58'  
2018-May-05 20:07N 38°02' E 122°14'110.4
2018-May-05 20:00N 38°02' E 122°13'8 9.9
2018-May-05 19:09N 38°02' E 122°02'310.9
2018-May-05 18:54N 38°03' E 121°59'1610.5
2018-May-05 17:25N 38°10' E 121°41'510.4
2018-May-05 16:53N 38°12' E 121°35'5410.9
2018-May-05 11:57N 38°35' E 120°32'  
2018-Apr-30 16:00N 38°25' E 121°25'510.1
2018-Apr-30 15:30N 38°23' E 121°31'510.4
2018-Apr-30 15:00N 38°21' E 121°37'510.7
2018-Apr-30 14:30N 38°19' E 121°43'510.4
2018-Apr-30 14:00N 38°17' E 121°49'510.1
2018-Apr-30 13:30N 38°15' E 121°55'510.2
2018-Apr-30 13:00N 38°13' E 122°01'510.2
2018-Apr-30 12:30N 38°12' E 122°08'510.0
2018-Apr-30 12:00N 38°11' E 122°14'510.1
2018-Apr-30 11:31N 38°10' E 122°20'510.0
2018-Apr-30 11:00N 38°09' E 122°26'510.2
2018-Apr-30 10:30N 38°07' E 122°32'510.3
2018-Apr-30 10:00N 38°05' E 122°38'510.8
2018-Apr-30 09:30N 38°03' E 122°45'510.4
2018-Apr-30 09:00N 38°00' E 122°51'510.8
2018-Apr-30 08:30N 37°58' E 122°57'510.5
2018-Apr-30 08:00N 37°57' E 123°03'510.3
2018-Apr-30 07:30N 37°55' E 123°09'510.3
2018-Apr-30 07:00N 37°54' E 123°16'510.4
2018-Apr-30 06:30N 37°52' E 123°22'510.3
2018-Apr-30 06:00N 37°51' E 123°28'5 9.5
2018-Apr-30 05:30N 37°49' E 123°34'5 9.5
2018-Apr-30 04:59N 37°44' E 123°35'  

Dump ship's entire track history